Main page
Satellite images 15-day forecastsClimateMarine weather Cyclones Lightning AirportsFAQ Newsletter About
Weather : Europe Africa North America South America Asia Australia-Oceania Others
Languages Contact

London-Gatwick, England

latitude: 51-09N, longitude: 000-11W, elevation: 62 m


METAR: EGKK 301450Z VRB04KT CAVOK 24/12 Q1015
short-TAF: out of date (50248 hours)
long-TAF: EGKK 301105Z 3012/3118 31006KT 9999 SCT040 BECMG 3108/3111 24010KT

Time: 16:08 (15:08 UTC)

Current weather observation

The report was made 18 minutes ago, at 14:50 UTC  
Wind 04 kt from variable directions
Temperature 24°C
Humidity 47%
Pressure 1015 hPa
Visibility 10 km or more
no clouds below 1500 m and no cumulonimbus

Change units

Forecast

The report was made 3 hours and 53 minutes ago, at 11:15 UTC  
Forecast valid from 30 at 12 UTC to 31 at 18 UTC
Wind 06 kt from the Northwest
Visibility 10 km or more
Scattered clouds at a height of 4000 ft
Becoming
from 31 at 08 UTC to 31 at 11 UTC
Wind 10 kt from the West/Southwest
The information on this site is subject to a disclaimer
Weather : Europe Africa North America South America Asia Australia-Oceania Others
Satellite images 15-day forecastsClimateMarine weather Cyclones Lightning AirportsFAQ Languages Contact Newsletter About